Rockford, Nebraska
Current Conditions -  °F | °C
As of 5:35 PM on Saturday 22 Nov 2014 (Local Time) from KBIE Reporting Station
Overcast Overcast  
Wind Chill: 56°   Ceiling: 900
Heat Index: 56°   Visibility: 10mi
Dew Point: 53°   Wind: 17mph
Humidity: 89%   Direction: 190°S
Pressure: 29.62"   Gusts: NA
Location:  40.2674°N, 96.7699°W
Report Text: KBIE 222335Z AUTO 19015KT 10SM BKN009 OVC013 14/12 A2962 RMK AO2 T01350117
Loading
Personal Weather Stations






























Interactive Weather Map New forecast layout! Learn more

10-Day Weather Forecast

Advertisements
Track Severe Weather on mobile